createdAt,value
2023-03-15T00:01:29.178Z,98988.13
2023-03-15T00:04:41.940Z,98996.75
2023-03-15T00:07:54.265Z,98992.78
2023-03-15T00:11:06.987Z,98984.03
2023-03-15T00:14:19.379Z,98999.28
2023-03-15T00:17:34.866Z,98994.28
2023-03-15T00:20:47.399Z,98997.69
2023-03-15T00:24:00.051Z,99002.31
2023-03-15T00:27:12.421Z,99009.87
2023-03-15T00:30:25.053Z,99014.09
2023-03-15T00:33:37.404Z,99013.31
2023-03-15T00:36:50.218Z,99008.16
2023-03-15T00:40:02.656Z,99000.63
2023-03-15T00:43:17.945Z,98998.62
2023-03-15T00:46:30.415Z,98995.81
2023-03-15T00:49:43.268Z,99000.63
2023-03-15T00:52:55.606Z,98998.47
2023-03-15T00:56:10.370Z,99007.88
2023-03-15T00:59:22.707Z,99003.09
2023-03-15T01:02:37.344Z,98999.47
2023-03-15T01:05:49.956Z,98996.06
2023-03-15T01:09:02.839Z,98989.06
2023-03-15T01:12:15.268Z,98992.69
2023-03-15T01:15:27.897Z,98985.03
2023-03-15T01:18:41.335Z,98990.66
2023-03-15T01:21:53.940Z,99004.25
2023-03-15T01:25:06.680Z,98987.44
2023-03-15T01:28:19.551Z,99001.06
2023-03-15T01:31:31.942Z,99007.41
2023-03-15T01:34:44.784Z,99008.88
2023-03-15T01:37:57.343Z,99010.47
2023-03-15T01:41:11.965Z,99001.94
2023-03-15T01:44:24.615Z,99008.78
2023-03-15T01:47:37.348Z,99012.75
2023-03-15T01:50:49.891Z,98999.59
2023-03-15T01:54:08.761Z,98989.19
2023-03-15T01:57:24.439Z,98998.00
2023-03-15T02:00:37.227Z,98987.63
2023-03-15T02:03:53.726Z,98974.38
2023-03-15T02:07:06.665Z,98990.84
2023-03-15T02:10:41.130Z,98978.50
2023-03-15T02:13:54.054Z,98982.13
2023-03-15T02:17:06.838Z,98981.38
2023-03-15T02:20:50.675Z,98996.03
2023-03-15T02:24:18.733Z,98990.59
2023-03-15T02:27:31.243Z,98991.03
2023-03-15T02:30:43.964Z,98984.22
2023-03-15T02:33:56.319Z,98996.28
2023-03-15T02:37:10.085Z,98991.12
2023-03-15T02:40:23.511Z,99001.94
2023-03-15T02:43:36.119Z,98998.78
2023-03-15T02:46:49.853Z,99002.94
2023-03-15T02:50:07.671Z,99003.97
2023-03-15T02:53:20.022Z,99005.56
2023-03-15T02:56:33.659Z,99019.97
2023-03-15T02:59:46.536Z,99018.37
2023-03-15T03:02:59.323Z,99020.44
2023-03-15T03:06:12.252Z,99025.63
2023-03-15T03:09:25.387Z,99025.00
2023-03-15T03:12:38.552Z,99016.84
2023-03-15T03:15:58.511Z,99016.84
2023-03-15T03:19:14.323Z,99006.06
2023-03-15T03:22:27.466Z,99014.94
2023-03-15T03:25:39.967Z,99019.97
2023-03-15T03:28:52.586Z,99019.44
2023-03-15T03:32:05.432Z,99016.03
2023-03-15T03:35:18.158Z,99012.88
2023-03-15T03:38:30.700Z,99015.69
2023-03-15T03:41:43.825Z,99000.34
2023-03-15T03:44:56.887Z,99001.94
2023-03-15T03:48:14.986Z,99003.13
2023-03-15T03:51:27.405Z,99005.13
2023-03-15T03:54:40.077Z,99001.13
2023-03-15T03:57:53.200Z,99005.94
2023-03-15T04:01:07.302Z,99007.91
2023-03-15T04:04:20.362Z,99006.31
2023-03-15T04:07:32.876Z,99005.47
2023-03-15T04:10:45.522Z,99009.81
2023-03-15T04:13:57.908Z,99022.56
2023-03-15T04:17:12.598Z,99018.16
2023-03-15T04:20:26.797Z,99011.56
2023-03-15T04:23:39.632Z,99021.72
2023-03-15T04:26:57.875Z,99027.16
2023-03-15T04:30:11.641Z,99026.13
2023-03-15T04:33:27.745Z,99028.16
2023-03-15T04:36:42.726Z,99030.38
2023-03-15T04:39:55.318Z,99025.37
2023-03-15T04:43:08.735Z,99021.00
2023-03-15T04:46:23.887Z,99029.78
2023-03-15T04:49:38.288Z,99031.84
2023-03-15T04:52:51.150Z,99032.41
2023-03-15T04:56:04.918Z,99043.41
2023-03-15T04:59:18.111Z,99046.88
2023-03-15T05:02:31.329Z,99051.09
2023-03-15T05:05:45.180Z,99053.06
2023-03-15T05:08:57.990Z,99055.91
2023-03-15T05:12:10.793Z,99056.69
2023-03-15T05:15:23.911Z,99049.94
2023-03-15T05:18:36.537Z,99054.94
2023-03-15T05:21:49.437Z,99065.13
2023-03-15T05:25:01.990Z,99062.56
2023-03-15T05:28:18.237Z,99058.41
2023-03-15T05:31:36.802Z,99066.00
2023-03-15T05:34:50.389Z,99067.41
2023-03-15T05:38:03.705Z,99063.63
2023-03-15T05:41:18.042Z,99065.63
2023-03-15T05:44:30.605Z,99058.03
2023-03-15T05:47:43.374Z,99062.63
2023-03-15T05:50:55.829Z,99063.22
2023-03-15T05:54:08.850Z,99074.59
2023-03-15T05:57:21.477Z,99067.78
2023-03-15T06:00:34.289Z,99068.00
2023-03-15T06:03:47.628Z,99062.44
2023-03-15T06:07:00.964Z,99073.34
2023-03-15T06:10:14.175Z,99067.19
2023-03-15T06:13:26.641Z,99073.97
2023-03-15T06:16:39.614Z,99081.13
2023-03-15T06:19:52.838Z,99087.13
2023-03-15T06:23:06.393Z,99103.44
2023-03-15T06:26:20.289Z,99106.03
2023-03-15T06:29:33.505Z,99103.84
2023-03-15T06:32:46.059Z,99098.66
2023-03-15T06:35:59.125Z,99093.09
2023-03-15T06:39:13.625Z,99097.06
2023-03-15T06:42:26.358Z,99100.84
2023-03-15T06:45:38.685Z,99106.66
2023-03-15T06:48:51.444Z,99105.47
2023-03-15T06:52:04.632Z,99115.44
2023-03-15T06:55:18.527Z,99116.03
2023-03-15T06:58:31.063Z,99118.25
2023-03-15T07:01:43.734Z,99129.41
2023-03-15T07:04:56.133Z,99137.81
2023-03-15T07:08:08.826Z,99135.00
2023-03-15T07:11:21.186Z,99158.16
2023-03-15T07:14:34.483Z,99140.97
2023-03-15T07:17:46.843Z,99157.34
2023-03-15T07:21:00.281Z,99153.78
2023-03-15T07:24:12.637Z,99154.94
2023-03-15T07:27:25.258Z,99145.81
2023-03-15T07:30:37.576Z,99141.78
2023-03-15T07:33:50.281Z,99147.37
2023-03-15T07:37:02.650Z,99152.59
2023-03-15T07:40:16.166Z,99160.94
2023-03-15T07:43:29.444Z,99156.59
2023-03-15T07:46:43.997Z,99158.16
2023-03-15T07:49:56.657Z,99165.53
2023-03-15T07:53:09.256Z,99171.13
2023-03-15T07:56:21.631Z,99172.94
2023-03-15T07:59:34.320Z,99171.34
2023-03-15T08:02:46.770Z,99191.28
2023-03-15T08:05:59.479Z,99179.31
2023-03-15T08:09:12.068Z,99193.03
2023-03-15T08:12:25.159Z,99194.66
2023-03-15T08:15:37.520Z,99194.44
2023-03-15T08:18:50.214Z,99204.81
2023-03-15T08:22:02.612Z,99218.34
2023-03-15T08:25:16.462Z,99215.31
2023-03-15T08:28:28.806Z,99211.91
2023-03-15T08:31:41.826Z,99238.16
2023-03-15T08:34:54.254Z,99239.53
2023-03-15T08:38:06.899Z,99239.37
2023-03-15T08:41:19.196Z,99244.31
2023-03-15T08:44:31.887Z,99252.91
2023-03-15T08:47:44.232Z,99251.69
2023-03-15T08:51:02.373Z,99258.12
2023-03-15T08:54:14.826Z,99257.75
2023-03-15T08:57:28.922Z,99265.50
2023-03-15T09:00:41.292Z,99272.94
2023-03-15T09:03:53.897Z,99280.91
2023-03-15T09:07:06.321Z,99281.69
2023-03-15T09:10:19.267Z,99290.53
2023-03-15T09:13:31.660Z,99287.13
2023-03-15T09:16:44.312Z,99303.09
2023-03-15T09:19:56.642Z,99305.66
2023-03-15T09:23:09.248Z,99313.25
2023-03-15T09:26:21.598Z,99328.78
2023-03-15T09:29:34.286Z,99334.28
2023-03-15T09:32:46.714Z,99336.13
2023-03-15T09:36:00.820Z,99340.31
2023-03-15T09:39:13.187Z,99345.87
2023-03-15T09:42:49.581Z,99351.53
2023-03-15T09:46:17.900Z,99361.88
2023-03-15T09:49:52.265Z,99370.25
2023-03-15T09:53:06.824Z,99373.12
2023-03-15T09:56:25.520Z,99382.75
2023-03-15T09:59:42.469Z,99403.69
2023-03-15T10:03:01.575Z,99399.31
2023-03-15T10:06:28.089Z,99393.19
2023-03-15T10:09:40.425Z,99401.41
2023-03-15T10:13:04.752Z,99404.75
2023-03-15T10:16:30.211Z,99409.59
2023-03-15T10:19:59.151Z,99414.37
2023-03-15T10:23:20.655Z,99412.84
2023-03-15T10:26:35.114Z,99429.78
2023-03-15T10:29:51.783Z,99422.72
2023-03-15T10:33:05.392Z,99421.16
2023-03-15T10:36:19.718Z,99421.00
2023-03-15T10:39:32.350Z,99418.47
2023-03-15T10:42:45.997Z,99421.78
2023-03-15T10:46:06.584Z,99426.44
2023-03-15T10:49:19.007Z,99420.13
2023-03-15T10:52:31.839Z,99424.53
2023-03-15T10:55:44.885Z,99425.38
2023-03-15T10:59:11.513Z,99439.63
2023-03-15T11:02:25.413Z,99438.47
2023-03-15T11:05:46.078Z,99420.84
2023-03-15T11:09:09.038Z,99419.31
2023-03-15T11:12:25.425Z,99436.37
2023-03-15T11:15:39.886Z,99441.69
2023-03-15T11:19:00.413Z,99438.03
2023-03-15T11:22:13.798Z,99444.59
2023-03-15T11:25:34.021Z,99441.22
2023-03-15T11:28:49.246Z,99440.62
2023-03-15T11:32:04.037Z,99444.63
2023-03-15T11:35:55.307Z,99444.87
2023-03-15T11:39:10.687Z,99446.28
2023-03-15T11:42:30.057Z,99442.69
2023-03-15T11:45:49.273Z,99449.28
2023-03-15T11:49:24.237Z,99452.28
2023-03-15T11:52:36.853Z,99448.62
2023-03-15T11:55:50.372Z,99447.09
2023-03-15T11:59:11.359Z,99453.50
2023-03-15T12:02:23.662Z,99436.87
2023-03-15T12:05:43.332Z,99445.25
2023-03-15T12:08:55.670Z,99455.06
2023-03-15T12:12:26.816Z,99456.06
2023-03-15T12:15:39.067Z,99462.25
2023-03-15T12:18:52.117Z,99467.66
2023-03-15T12:22:04.452Z,99472.63
2023-03-15T12:25:33.871Z,99470.81
2023-03-15T12:28:51.809Z,99480.25
2023-03-15T12:32:04.390Z,99483.69
2023-03-15T12:35:17.715Z,99482.28
2023-03-15T12:38:39.336Z,99468.69
2023-03-15T12:41:51.825Z,99480.06
2023-03-15T12:45:27.414Z,99475.28
2023-03-15T12:48:40.063Z,99479.47
2023-03-15T12:52:11.912Z,99483.84
2023-03-15T12:55:24.289Z,99481.03
2023-03-15T12:58:37.074Z,99490.66
2023-03-15T13:01:51.436Z,99487.88
2023-03-15T13:05:22.892Z,99495.88
2023-03-15T13:08:47.674Z,99496.88
2023-03-15T13:12:05.238Z,99514.06
2023-03-15T13:15:25.083Z,99513.44
2023-03-15T13:18:44.880Z,99519.88
2023-03-15T13:22:12.542Z,99517.09
2023-03-15T13:25:51.050Z,99523.88
2023-03-15T13:29:17.786Z,99517.50
2023-03-15T13:32:30.424Z,99535.91
2023-03-15T13:35:57.471Z,99544.50
2023-03-15T13:39:33.487Z,99530.69
2023-03-15T13:42:45.853Z,99540.47
2023-03-15T13:45:58.877Z,99541.50
2023-03-15T13:49:12.221Z,99551.87
2023-03-15T13:52:27.650Z,99542.69
2023-03-15T13:55:39.984Z,99557.69
2023-03-15T13:58:53.029Z,99561.06
2023-03-15T14:02:05.498Z,99569.28
2023-03-15T14:05:19.639Z,99563.50
2023-03-15T14:08:35.938Z,99576.31
2023-03-15T14:12:07.457Z,99574.31
2023-03-15T14:15:41.392Z,99591.31
2023-03-15T14:18:55.142Z,99586.91
2023-03-15T14:22:15.765Z,99589.53
2023-03-15T14:25:28.458Z,99601.50
2023-03-15T14:28:40.966Z,99597.84
2023-03-15T14:31:53.680Z,99583.47
2023-03-15T14:35:08.065Z,99597.47
2023-03-15T14:38:26.685Z,99598.84
2023-03-15T14:41:39.203Z,99600.81
2023-03-15T14:44:52.944Z,99604.03
2023-03-15T14:48:13.892Z,99607.88
2023-03-15T14:51:26.508Z,99621.44
2023-03-15T14:54:38.900Z,99621.84
2023-03-15T14:57:51.622Z,99620.03
2023-03-15T15:01:04.094Z,99636.63
2023-03-15T15:04:17.244Z,99630.97
2023-03-15T15:07:29.822Z,99636.06
2023-03-15T15:10:44.498Z,99641.69
2023-03-15T15:13:57.735Z,99636.03
2023-03-15T15:17:11.415Z,99649.38
2023-03-15T15:20:23.856Z,99651.16
2023-03-15T15:23:47.463Z,99655.84
2023-03-15T15:27:10.525Z,99664.81
2023-03-15T15:30:25.036Z,99677.97
2023-03-15T15:33:37.426Z,99688.84
2023-03-15T15:36:50.149Z,99688.78
2023-03-15T15:40:02.589Z,99697.44
2023-03-15T15:43:16.289Z,99712.91
2023-03-15T15:46:28.721Z,99705.16
2023-03-15T15:49:41.503Z,99721.25
2023-03-15T15:53:01.284Z,99732.06
2023-03-15T15:56:13.874Z,99732.19
2023-03-15T15:59:27.147Z,99754.63
2023-03-15T16:02:40.329Z,99758.50
2023-03-15T16:05:53.078Z,99757.03
2023-03-15T16:09:06.349Z,99767.16
2023-03-15T16:12:19.056Z,99770.09
2023-03-15T16:15:31.432Z,99767.06
2023-03-15T16:18:44.157Z,99770.44
2023-03-15T16:21:56.460Z,99769.78
2023-03-15T16:25:11.263Z,99781.03
2023-03-15T16:28:23.921Z,99790.25
2023-03-15T16:31:36.548Z,99786.81
2023-03-15T16:34:49.723Z,99805.34
2023-03-15T16:38:02.654Z,99816.19
2023-03-15T16:41:15.642Z,99812.78
2023-03-15T16:44:28.265Z,99819.03
2023-03-15T16:47:40.560Z,99823.19
2023-03-15T16:50:55.337Z,99830.88
2023-03-15T16:54:19.514Z,99825.22
2023-03-15T16:57:34.647Z,99826.75
2023-03-15T17:00:48.288Z,99830.59
2023-03-15T17:04:01.995Z,99832.03
2023-03-15T17:07:14.536Z,99844.72
2023-03-15T17:10:29.374Z,99853.47
2023-03-15T17:13:41.999Z,99851.78
2023-03-15T17:16:54.648Z,99848.50
2023-03-15T17:20:10.993Z,99854.91
2023-03-15T17:23:24.353Z,99871.09
2023-03-15T17:26:36.806Z,99871.44
2023-03-15T17:29:49.455Z,99888.44
2023-03-15T17:33:02.021Z,99888.94
2023-03-15T17:36:16.154Z,99893.44
2023-03-15T17:39:28.475Z,99896.81
2023-03-15T17:42:41.145Z,99908.09
2023-03-15T17:45:53.565Z,99909.16
2023-03-15T17:49:07.486Z,99909.66
2023-03-15T17:52:20.737Z,99915.84
2023-03-15T17:55:36.093Z,99920.75
2023-03-15T17:58:49.090Z,99933.34
2023-03-15T18:02:01.732Z,99934.03
2023-03-15T18:05:16.951Z,99938.81
2023-03-15T18:08:29.253Z,99945.66
2023-03-15T18:11:46.216Z,99954.63
2023-03-15T18:14:59.905Z,99952.41
2023-03-15T18:18:12.565Z,99958.41
2023-03-15T18:21:26.258Z,99966.81
2023-03-15T18:24:38.908Z,99972.84
2023-03-15T18:27:51.313Z,99966.94
2023-03-15T18:31:03.973Z,99982.19
2023-03-15T18:34:17.277Z,99975.09
2023-03-15T18:37:29.898Z,99989.09
2023-03-15T18:40:42.218Z,99984.09
2023-03-15T18:43:54.883Z,99994.16
2023-03-15T18:47:08.629Z,99993.87
2023-03-15T18:50:21.625Z,100004.03
2023-03-15T18:53:33.950Z,100007.63
2023-03-15T18:56:46.649Z,100008.62
2023-03-15T18:59:58.969Z,100007.13
2023-03-15T19:03:11.637Z,100007.66
2023-03-15T19:06:24.069Z,100015.28
2023-03-15T19:09:37.867Z,100021.31
2023-03-15T19:12:50.561Z,100021.31
2023-03-15T19:16:03.656Z,100027.94
2023-03-15T19:19:15.985Z,100021.59
2023-03-15T19:22:31.123Z,100030.37
2023-03-15T19:25:43.493Z,100038.75
2023-03-15T19:28:56.522Z,100045.25
2023-03-15T19:32:08.850Z,100041.72
2023-03-15T19:35:21.661Z,100053.03
2023-03-15T19:38:34.126Z,100055.28
2023-03-15T19:41:47.146Z,100052.56
2023-03-15T19:44:59.474Z,100063.38
2023-03-15T19:48:12.082Z,100071.47
2023-03-15T19:51:27.678Z,100067.25
2023-03-15T19:54:40.638Z,100072.25
2023-03-15T19:57:53.091Z,100065.66
2023-03-15T20:01:05.843Z,100075.97
2023-03-15T20:04:18.503Z,100078.56
2023-03-15T20:07:30.859Z,100084.69
2023-03-15T20:10:43.972Z,100079.53
2023-03-15T20:13:56.316Z,100081.13
2023-03-15T20:17:08.948Z,100086.44
2023-03-15T20:20:21.641Z,100087.87
2023-03-15T20:23:35.864Z,100095.78
2023-03-15T20:26:50.505Z,100098.19
2023-03-15T20:30:03.543Z,100100.78
2023-03-15T20:33:16.083Z,100112.72
2023-03-15T20:36:28.720Z,100102.56
2023-03-15T20:39:41.025Z,100107.22
2023-03-15T20:42:53.667Z,100112.72
2023-03-15T20:46:06.093Z,100108.97
2023-03-15T20:49:18.794Z,100114.66
2023-03-15T20:52:32.244Z,100119.16
2023-03-15T20:55:44.910Z,100123.06
2023-03-15T20:58:57.211Z,100122.06
2023-03-15T21:02:12.713Z,100129.19
2023-03-15T21:05:27.340Z,100137.38
2023-03-15T21:08:41.593Z,100130.47
2023-03-15T21:11:53.944Z,100129.16
2023-03-15T21:15:07.041Z,100135.56
2023-03-15T21:18:19.885Z,100129.44
2023-03-15T21:21:32.464Z,100131.72
2023-03-15T21:24:55.191Z,100137.03
2023-03-15T21:28:08.346Z,100135.06
2023-03-15T21:31:20.815Z,100136.69
2023-03-15T21:34:33.887Z,100135.41
2023-03-15T21:37:46.304Z,100135.41
2023-03-15T21:40:59.879Z,100134.44
2023-03-15T21:44:12.435Z,100142.84
2023-03-15T21:47:25.088Z,100148.47
2023-03-15T21:50:37.728Z,100146.94
2023-03-15T21:53:50.429Z,100146.84
2023-03-15T21:57:04.195Z,100145.81
2023-03-15T22:00:18.575Z,100140.38
2023-03-15T22:03:32.371Z,100139.44
2023-03-15T22:06:44.662Z,100140.44
2023-03-15T22:09:57.292Z,100140.09
2023-03-15T22:13:09.661Z,100144.97
2023-03-15T22:16:22.313Z,100139.13
2023-03-15T22:19:34.707Z,100141.53
2023-03-15T22:22:47.653Z,100135.87
2023-03-15T22:25:59.998Z,100137.31
2023-03-15T22:29:12.648Z,100142.97
2023-03-15T22:32:24.964Z,100144.28
2023-03-15T22:35:37.681Z,100143.28
2023-03-15T22:38:50.320Z,100141.34
2023-03-15T22:42:03.037Z,100143.59
2023-03-15T22:45:15.463Z,100151.66
2023-03-15T22:48:28.214Z,100147.12
2023-03-15T22:51:40.940Z,100148.87
2023-03-15T22:54:53.534Z,100150.34
2023-03-15T22:58:05.878Z,100149.37
2023-03-15T23:01:18.561Z,100150.00
2023-03-15T23:04:31.074Z,100157.12
2023-03-15T23:07:43.784Z,100148.56
2023-03-15T23:10:58.940Z,100158.87
2023-03-15T23:14:11.546Z,100164.56
2023-03-15T23:17:24.248Z,100163.63
2023-03-15T23:20:37.655Z,100174.44
2023-03-15T23:23:50.035Z,100174.06
2023-03-15T23:27:05.918Z,100180.66
2023-03-15T23:30:18.357Z,100176.75
2023-03-15T23:33:34.021Z,100179.63
2023-03-15T23:36:46.437Z,100187.03
2023-03-15T23:39:59.549Z,100187.34
2023-03-15T23:43:12.423Z,100197.34
2023-03-15T23:46:25.496Z,100203.19
2023-03-15T23:49:37.911Z,100198.94
2023-03-15T23:52:50.523Z,100200.03
2023-03-15T23:56:03.134Z,100205.44
2023-03-15T23:59:15.805Z,100201.91
